< < Back
Terminal Aerodrome Forecast


Current Version              Previous Versions:   1  2  3  4  5  6  7  8  9  

Terminal Aerodrome Forecast

819
FTUS42 KFFC 031353 AAA
TAFATL
TAF AMD
KATL 031353Z 0314/0418 07006KT P6SM FEW250
     FM031600 03005KT P6SM FEW250
     FM031800 35006KT P6SM SCT050
     FM040300 35004KT P6SM FEW080
     FM041700 32005KT P6SM FEW040=



Latest METAR

364
SAUS70 KWBC 031500 RRL
MTRATL
METAR KATL 031452Z VRB03KT 10SM FEW025 SCT180 SCT250 28/22 A2997 RMK AO2
SLP138 T02780217 51010


USA.gov is the U.S. government's official web portal to all federal, state and local government web resources and services.